Time;durP1;ratioP1;P1;durP2;ratioP2;P2;SDS_P1;SDS_P2;PMS_P1;PMS_P2;Temp;Humidity;BMP_temperature;BMP_pressure;BME280_temperature;BME280_humidity;BME280_pressure;Samples;Min_cycle;Max_cycle;Signal;HPM_P1;HPM_P2
2023/01/21 00:00:11;;;;;;;78.00;27.00;;;;;;;13.10;61.73;102441.34;5060262;28;20342;-54
2023/01/21 00:02:37;;;;;;;70.72;26.67;;;;;;;13.00;62.03;102436.16;5056240;28;20059;-55
2023/01/21 00:05:03;;;;;;;80.17;27.93;;;;;;;13.06;62.00;102442.69;5058292;28;20037;-55
2023/01/21 00:07:28;;;;;;;53.73;20.80;;;;;;;12.70;62.26;102437.72;5059168;28;20042;-55
2023/01/21 00:09:54;;;;;;;76.93;26.30;;;;;;;12.78;62.22;102440.38;5063422;28;20281;-52
2023/01/21 00:12:19;;;;;;;77.13;26.75;;;;;;;12.81;61.79;102448.13;5062844;28;20064;-51
2023/01/21 00:14:45;;;;;;;71.07;25.67;;;;;;;13.01;61.65;102448.56;5057132;28;20056;-52
2023/01/21 00:17:10;;;;;;;74.87;26.10;;;;;;;12.81;61.90;102450.81;5056497;28;20266;-54
2023/01/21 00:19:35;;;;;;;76.40;27.30;;;;;;;13.00;61.81;102449.59;5064112;28;20055;-51
2023/01/21 00:22:01;;;;;;;53.03;19.57;;;;;;;12.91;61.67;102454.13;5059765;28;20067;-52
2023/01/21 00:24:27;;;;;;;76.40;25.73;;;;;;;12.97;61.27;102458.00;5058337;28;20033;-51
2023/01/21 00:26:52;;;;;;;76.93;26.90;;;;;;;12.92;61.66;102463.03;5056826;28;20068;-52
2023/01/21 00:29:19;;;;;;;77.45;27.55;;;;;;;12.60;62.98;102454.88;5055628;28;20025;-51
2023/01/21 00:31:44;;;;;;;73.75;26.67;;;;;;;13.13;61.57;102469.69;5060059;28;20045;-50
2023/01/21 00:34:10;;;;;;;50.80;20.83;;;;;;;13.12;61.51;102474.22;5055364;28;20046;-53
2023/01/21 00:36:36;;;;;;;73.00;25.83;;;;;;;12.93;61.61;102480.84;5066224;28;20090;-55
2023/01/21 00:39:01;;;;;;;72.17;25.67;;;;;;;12.93;61.22;102480.84;5062628;28;20033;-53
2023/01/21 00:41:26;;;;;;;77.17;27.33;;;;;;;12.75;61.50;102484.53;5059623;28;20292;-49
2023/01/21 00:43:52;;;;;;;59.88;20.55;;;;;;;12.90;61.32;102490.06;5057890;28;20044;-52
2023/01/21 00:46:18;;;;;;;71.23;27.13;;;;;;;12.99;61.33;102495.41;5056868;28;20037;-51
2023/01/21 00:48:44;;;;;;;79.53;28.03;;;;;;;12.78;61.47;102496.78;5066326;28;20350;-53
2023/01/21 00:51:09;;;;;;;67.07;23.67;;;;;;;12.63;61.74;102501.97;5057805;28;20037;-51
2023/01/21 00:53:42;;;;;;;79.97;26.55;;;;;;;12.64;61.67;102505.53;5058694;28;20040;-54
2023/01/21 00:56:11;;;;;;;68.82;24.35;;;;;;;12.67;61.71;102511.38;5063985;28;20090;-55
2023/01/21 00:58:37;;;;;;;73.35;26.55;;;;;;;12.86;61.23;102512.88;5061087;28;20063;-53
2023/01/21 01:01:05;;;;;;;78.23;26.53;;;;;;;12.84;60.99;102516.75;5060891;28;20065;-54
2023/01/21 01:03:32;;;;;;;66.40;23.98;;;;;;;13.07;60.05;102527.63;5060485;28;20052;-52
2023/01/21 01:06:05;;;;;;;70.07;25.52;;;;;;;13.09;60.01;102532.81;5064137;28;20136;-56
2023/01/21 01:08:31;;;;;;;66.40;24.15;;;;;;;12.93;60.38;102528.31;5064639;28;20037;-54
2023/01/21 01:10:58;;;;;;;79.45;27.52;;;;;;;13.17;59.79;102540.88;5060191;28;20029;-53
2023/01/21 01:13:24;;;;;;;75.07;26.77;;;;;;;13.22;59.37;102546.56;5061820;28;20033;-54
2023/01/21 01:15:53;;;;;;;74.38;27.52;;;;;;;13.17;59.41;102548.94;5058213;28;20048;-55
2023/01/21 01:18:18;;;;;;;69.75;25.63;;;;;;;13.02;59.67;102544.25;5060024;28;20048;-54
2023/01/21 01:20:46;;;;;;;61.92;22.92;;;;;;;12.91;60.14;102547.25;5058608;28;20021;-55
2023/01/21 01:23:11;;;;;;;70.10;25.48;;;;;;;12.80;60.22;102553.00;5057279;28;20037;-50
2023/01/21 01:25:37;;;;;;;69.63;26.02;;;;;;;12.61;60.59;102555.00;5059713;28;20044;-51
2023/01/21 01:28:03;;;;;;;74.60;25.77;;;;;;;12.82;60.07;102559.88;5060958;28;20064;-53
2023/01/21 01:30:29;;;;;;;65.40;25.03;;;;;;;12.99;59.85;102563.38;5062720;28;20033;-55
2023/01/21 01:32:54;;;;;;;65.93;24.77;;;;;;;13.10;59.52;102561.34;5060239;28;20044;-53
2023/01/21 01:35:20;;;;;;;68.87;24.70;;;;;;;13.64;58.75;102568.81;5057191;28;20037;-54
2023/01/21 01:37:46;;;;;;;68.85;23.95;;;;;;;13.94;57.11;102573.56;5060536;28;20041;-52
2023/01/21 01:40:12;;;;;;;67.43;23.73;;;;;;;13.44;57.50;102569.22;5059892;28;20041;-52
2023/01/21 01:42:37;;;;;;;66.00;25.75;;;;;;;13.30;58.16;102570.72;5061846;28;20041;-52
2023/01/21 01:45:06;;;;;;;65.40;25.43;;;;;;;13.26;57.72;102571.22;5057180;28;20033;-50
2023/01/21 01:47:42;;;;;;;71.65;25.35;;;;;;;12.95;58.61;102580.84;5064234;28;20029;-52
2023/01/21 01:50:10;;;;;;;;;;;;;;;13.11;58.49;102581.84;5063012;28;20045;-51
2023/01/21 01:52:37;;;;;;;61.50;22.92;;;;;;;13.09;58.71;102586.53;5056632;28;19913;-54
2023/01/21 01:55:04;;;;;;;69.70;24.75;;;;;;;12.87;59.18;102583.53;5056409;28;20134;-54
2023/01/21 01:57:39;;;;;;;67.65;25.02;;;;;;;12.75;59.41;102591.94;5059327;28;20056;-53
2023/01/21 02:00:08;;;;;;;67.97;23.67;;;;;;;12.89;58.68;102603.84;5060137;28;20025;-48
2023/01/21 02:02:41;;;;;;;62.20;22.05;;;;;;;12.95;58.74;102605.03;5062028;28;20033;-53
2023/01/21 02:05:10;;;;;;;73.28;25.73;;;;;;;12.77;59.08;102611.38;5057479;28;20064;-51
2023/01/21 02:07:42;;;;;;;68.47;22.08;;;;;;;12.81;59.16;102608.38;5072382;28;20033;-52
2023/01/21 02:10:11;;;;;;;67.93;23.35;;;;;;;12.59;59.68;102614.22;5058925;28;20057;-54
2023/01/21 02:12:39;;;;;;;74.82;24.73;;;;;;;12.77;59.41;102613.22;5057612;28;20362;-54
2023/01/21 02:15:05;;;;;;;75.53;24.00;;;;;;;12.41;60.10;102619.69;5058923;28;20059;-52
2023/01/21 02:17:43;;;;;;;67.63;23.77;;;;;;;12.48;59.64;102623.44;5061412;28;20025;-53
2023/01/21 02:20:34;;;;;;;75.68;23.45;;;;;;;13.06;58.71;102622.66;5061781;28;20036;-53
2023/01/21 02:23:39;;;;;;;63.30;22.48;;;;;;;13.40;57.92;102626.16;5059880;28;20037;-53
2023/01/21 02:26:29;;;;;;;66.85;23.27;;;;;;;12.81;58.25;102637.91;5061079;28;20063;-53
2023/01/21 02:29:15;;;;;;;62.28;22.73;;;;;;;12.70;59.09;102634.53;5058109;28;20029;-48
2023/01/21 02:31:59;;;;;;;70.55;22.42;;;;;;;12.62;59.01;102638.03;5060071;28;20037;-54
2023/01/21 02:34:34;;;;;;;67.88;23.85;;;;;;;12.68;59.06;102646.44;5055994;28;20052;-52
2023/01/21 02:37:06;;;;;;;66.25;22.77;;;;;;;12.70;58.88;102641.75;5062474;28;20096;-50
2023/01/21 02:39:57;;;;;;;65.88;23.13;;;;;;;12.61;58.82;102647.09;5059851;28;20032;-49
2023/01/21 02:42:31;;;;;;;62.97;23.25;;;;;;;12.71;59.22;102646.97;5056524;28;20025;-49
2023/01/21 02:45:15;;;;;;;60.38;23.15;;;;;;;12.73;58.53;102657.50;5060798;28;20033;-49
2023/01/21 02:48:06;;;;;;;62.47;21.10;;;;;;;12.66;58.49;102668.06;5060207;28;20043;-55
2023/01/21 02:50:35;;;;;;;62.78;21.55;;;;;;;12.43;58.88;102666.00;5054726;28;20032;-52
2023/01/21 02:53:02;;;;;;;64.32;22.55;;;;;;;12.57;59.12;102667.22;5056674;28;20033;-52
2023/01/21 02:55:31;;;;;;;61.40;22.73;;;;;;;12.61;59.03;102671.25;5055420;28;20033;-50
2023/01/21 02:58:03;;;;;;;57.63;22.13;;;;;;;12.74;58.73;102667.25;5064453;28;20033;-50
2023/01/21 03:00:44;;;;;;;69.22;22.05;;;;;;;12.82;57.98;102678.03;5055827;28;20033;-49
2023/01/21 03:03:31;;;;;;;64.10;23.02;;;;;;;12.57;58.56;102677.13;5055923;28;20054;-50
2023/01/21 03:06:31;;;;;;;62.23;23.30;;;;;;;12.90;58.00;102680.69;5055385;28;20045;-50
2023/01/21 03:09:25;;;;;;;68.28;21.65;;;;;;;12.85;57.99;102683.06;5060847;28;20278;-50
2023/01/21 03:11:55;;;;;;;59.63;21.67;;;;;;;12.72;58.08;102688.91;5056104;28;20064;-47
2023/01/21 03:17:40;;;;;;;63.05;21.80;;;;;;;12.58;58.72;102697.56;5060128;28;20092;-53
2023/01/21 03:20:16;;;;;;;67.07;23.88;;;;;;;12.88;58.00;102689.91;5055476;28;20047;-50
2023/01/21 03:22:43;;;;;;;65.00;23.52;;;;;;;12.84;58.24;102697.50;5055916;28;20034;-50
2023/01/21 03:25:12;;;;;;;58.95;22.38;;;;;;;12.58;58.82;102694.91;5057634;28;20047;-49
2023/01/21 03:27:41;;;;;;;67.30;23.35;;;;;;;12.87;58.15;102701.66;5057655;28;20033;-50
2023/01/21 03:30:17;;;;;;;65.85;21.67;;;;;;;12.46;59.13;102700.56;5056763;28;20033;-48
2023/01/21 03:32:47;;;;;;;58.95;22.08;;;;;;;12.74;58.21;102689.56;5057541;28;20089;-50
2023/01/21 03:35:21;;;;;;;55.45;20.13;;;;;;;12.65;58.43;102698.59;5055818;28;20052;-49
2023/01/21 03:37:57;;;;;;;58.47;21.85;;;;;;;12.74;58.28;102708.38;5057960;28;20123;-50
2023/01/21 03:40:26;;;;;;;66.30;24.20;;;;;;;12.68;58.25;102703.63;5060717;28;20029;-52
2023/01/21 03:42:55;;;;;;;64.38;21.98;;;;;;;12.90;57.46;102706.69;5054818;28;20044;-54
2023/01/21 03:45:43;;;;;;;57.28;22.08;;;;;;;13.02;57.65;102712.59;5058017;28;20044;-53
2023/01/21 03:48:17;;;;;;;62.65;21.95;;;;;;;13.03;57.05;102709.75;5058200;28;20049;-52
2023/01/21 03:50:53;;;;;;;62.35;22.55;;;;;;;13.00;57.60;102711.91;5059036;28;20059;-53
2023/01/21 03:53:19;;;;;;;72.60;23.48;;;;;;;12.55;58.35;102711.31;5058342;28;20044;-51
2023/01/21 03:55:48;;;;;;;65.25;22.50;;;;;;;12.68;58.37;102717.06;5062032;28;20040;-48
2023/01/21 03:58:13;;;;;;;58.78;21.25;;;;;;;12.92;57.47;102710.09;5063753;28;20061;-50
2023/01/21 04:00:38;;;;;;;53.97;18.17;;;;;;;12.61;57.96;102716.03;5053121;28;20034;-56
2023/01/21 04:03:04;;;;;;;64.83;23.60;;;;;;;12.63;57.80;102711.34;5065223;28;20131;-47
2023/01/21 04:05:30;;;;;;;59.47;22.15;;;;;;;12.66;57.99;102708.31;5056389;28;20033;-51
2023/01/21 04:07:55;;;;;;;68.45;27.35;;;;;;;12.64;57.66;102704.97;5059342;28;20048;-55
2023/01/21 04:10:21;;;;;;;68.00;22.63;;;;;;;12.44;57.90;102717.81;5061921;28;20089;-52
2023/01/21 04:12:46;;;;;;;67.27;21.73;;;;;;;11.96;59.26;102712.00;5060899;28;20033;-54
2023/01/21 04:15:12;;;;;;;53.65;17.92;;;;;;;11.84;59.52;102716.81;5056782;28;20061;-53
2023/01/21 04:17:37;;;;;;;56.30;21.15;;;;;;;11.81;59.56;102717.13;5053894;28;20106;-50
2023/01/21 04:20:03;;;;;;;54.83;16.65;;;;;;;11.79;58.95;102713.75;5057193;28;20025;-52
2023/01/21 04:22:29;;;;;;;67.22;20.10;;;;;;;11.86;58.84;102712.97;5055296;28;20097;-49
2023/01/21 04:24:54;;;;;;;57.53;18.63;;;;;;;11.96;59.12;102720.06;5054769;28;20037;-51
2023/01/21 04:27:20;;;;;;;58.07;19.93;;;;;;;11.97;59.35;102727.97;5054779;28;20117;-49
2023/01/21 04:29:46;;;;;;;47.97;18.30;;;;;;;11.86;59.14;102726.38;5057974;28;20358;-53
2023/01/21 04:32:11;;;;;;;58.37;19.97;;;;;;;12.02;58.59;102735.56;5058946;28;20281;-50
2023/01/21 04:34:36;;;;;;;56.63;20.90;;;;;;;11.94;58.78;102740.84;5057087;28;20050;-55
2023/01/21 04:37:02;;;;;;;59.42;22.95;;;;;;;11.76;58.97;102736.34;5062438;28;20056;-51
2023/01/21 04:39:28;;;;;;;63.20;22.45;;;;;;;11.79;58.85;102736.06;5059198;28;20034;-51
2023/01/21 04:41:53;;;;;;;62.83;23.23;;;;;;;11.76;58.98;102745.25;5059793;28;20112;-52
2023/01/21 04:44:19;;;;;;;61.13;21.73;;;;;;;11.66;59.13;102747.19;5060911;28;20083;-53
2023/01/21 04:46:44;;;;;;;61.90;23.13;;;;;;;11.85;59.41;102747.97;5065692;28;20040;-49
2023/01/21 04:49:09;;;;;;;51.40;16.83;;;;;;;11.81;58.64;102751.97;5068827;28;20274;-48
2023/01/21 04:51:35;;;;;;;66.05;23.45;;;;;;;11.45;59.19;102764.44;5058787;28;20041;-54
2023/01/21 04:54:01;;;;;;;74.20;22.98;;;;;;;11.68;59.08;102755.91;5062199;28;20057;-53
2023/01/21 04:56:26;;;;;;;70.10;23.33;;;;;;;11.70;58.87;102766.47;5058232;28;20036;-54
2023/01/21 04:58:52;;;;;;;72.05;23.67;;;;;;;11.49;58.79;102778.34;5062528;28;20041;-52
2023/01/21 05:01:17;;;;;;;70.10;23.73;;;;;;;11.61;58.85;102766.41;5064562;28;20049;-50
2023/01/21 05:03:43;;;;;;;62.63;22.40;;;;;;;11.65;58.75;102766.09;5058907;28;20278;-53
2023/01/21 05:06:08;;;;;;;44.33;15.80;;;;;;;11.47;59.34;102774.97;5061233;28;20124;-50
2023/01/21 05:08:34;;;;;;;61.35;24.48;;;;;;;11.53;59.02;102774.38;5062811;28;20037;-48
2023/01/21 05:10:59;;;;;;;51.57;16.57;;;;;;;11.36;59.44;102784.09;5062476;28;20049;-51
2023/01/21 05:13:25;;;;;;;66.33;23.20;;;;;;;11.45;59.15;102787.69;5056424;28;20345;-48
2023/01/21 05:15:50;;;;;;;71.10;24.23;;;;;;;11.50;58.75;102777.34;5055904;28;20060;-53
2023/01/21 05:18:16;;;;;;;80.63;26.95;;;;;;;11.45;59.13;102776.97;5059902;28;20036;-52
2023/01/21 05:20:41;;;;;;;71.93;23.53;;;;;;;11.41;58.82;102786.31;5063287;28;20052;-53
2023/01/21 05:23:07;;;;;;;48.58;17.83;;;;;;;11.45;59.34;102785.03;5058738;28;20025;-54
2023/01/21 05:25:32;;;;;;;62.72;23.52;;;;;;;11.55;58.88;102793.84;5065757;28;20415;-51
2023/01/21 05:27:58;;;;;;;64.38;21.23;;;;;;;11.57;58.57;102799.03;5065671;28;20060;-51
2023/01/21 05:30:23;;;;;;;67.73;24.63;;;;;;;11.57;58.66;102785.63;5057274;28;20037;-50
2023/01/21 05:32:51;;;;;;;72.10;22.50;;;;;;;11.46;58.50;102800.09;5057901;28;20270;-51
2023/01/21 05:35:19;;;;;;;63.97;21.63;;;;;;;11.37;58.97;102795.66;5059437;28;20270;-51
2023/01/21 05:37:46;;;;;;;66.15;22.33;;;;;;;11.40;58.69;102788.16;5066034;28;20043;-49
2023/01/21 05:40:16;;;;;;;62.55;23.35;;;;;;;11.37;58.79;102793.81;5059339;28;20029;-50
2023/01/21 05:42:42;;;;;;;56.63;19.38;;;;;;;11.36;59.01;102802.03;5056805;28;20029;-50
2023/01/21 05:45:10;;;;;;;62.60;23.95;;;;;;;11.31;58.82;102803.31;5061096;28;20040;-50
2023/01/21 05:47:36;;;;;;;67.78;23.08;;;;;;;11.29;59.79;102804.47;5062644;28;20045;-53
2023/01/21 05:50:02;;;;;;;63.60;21.80;;;;;;;11.26;59.17;102805.59;5062931;28;20041;-54
2023/01/21 05:52:28;;;;;;;67.57;23.58;;;;;;;11.23;59.26;102805.91;5057670;28;20063;-54
2023/01/21 05:54:53;;;;;;;62.47;22.03;;;;;;;11.40;58.86;102809.56;5060523;28;20029;-51
2023/01/21 05:57:19;;;;;;;61.73;23.23;;;;;;;11.42;58.87;102798.72;5060963;28;20274;-49
2023/01/21 05:59:44;;;;;;;67.03;23.43;;;;;;;11.48;58.18;102819.53;5079608;28;20284;-55
2023/01/21 06:02:10;;;;;;;58.97;21.40;;;;;;;11.47;58.09;102820.53;5069533;28;20040;-50
2023/01/21 06:04:36;;;;;;;62.42;22.95;;;;;;;11.45;58.02;102830.56;5062738;28;20035;-49
2023/01/21 06:07:01;;;;;;;63.40;23.07;;;;;;;11.52;58.05;102828.13;5057834;28;20038;-47
2023/01/21 06:09:26;;;;;;;63.13;22.50;;;;;;;11.41;58.45;102829.19;5062307;28;20041;-48
2023/01/21 06:11:52;;;;;;;73.93;23.27;;;;;;;11.37;59.06;102835.84;5061580;28;20087;-48
2023/01/21 06:14:18;;;;;;;51.13;17.58;;;;;;;11.37;58.72;102841.22;5054420;28;20037;-51
2023/01/21 06:16:43;;;;;;;64.50;23.57;;;;;;;11.30;59.06;102840.97;5061754;28;20081;-52
2023/01/21 06:19:09;;;;;;;70.57;24.67;;;;;;;11.18;59.02;102840.34;5064136;28;20029;-51
2023/01/21 06:21:35;;;;;;;68.43;22.95;;;;;;;11.24;58.88;102837.03;5062189;28;20037;-49
2023/01/21 06:24:01;;;;;;;72.80;24.60;;;;;;;11.22;58.75;102830.16;5060190;28;20115;-48
2023/01/21 06:26:27;;;;;;;65.75;23.92;;;;;;;11.13;59.14;102845.31;5061454;28;20262;-51
2023/01/21 06:28:56;;;;;;;70.72;24.95;;;;;;;11.11;59.78;102842.75;5063444;28;20056;-48
2023/01/21 06:31:23;;;;;;;63.08;22.25;;;;;;;10.99;59.83;102844.78;5057358;28;20037;-50
2023/01/21 06:33:48;;;;;;;78.90;23.88;;;;;;;10.96;60.09;102841.59;5060362;28;20064;-52
2023/01/21 06:36:14;;;;;;;73.87;24.40;;;;;;;10.93;60.51;102850.75;5060745;28;20057;-49
2023/01/21 06:38:39;;;;;;;70.33;24.47;;;;;;;11.20;59.85;102851.72;5053934;28;20273;-52
2023/01/21 06:41:04;;;;;;;73.53;23.63;;;;;;;11.14;61.08;102855.03;5058698;28;20036;-51
2023/01/21 06:43:30;;;;;;;50.40;16.13;;;;;;;10.65;61.77;102850.72;5054855;28;20030;-50
2023/01/21 06:45:56;;;;;;;75.18;23.75;;;;;;;11.10;62.51;102869.72;5061683;28;20034;-52
2023/01/21 06:48:22;;;;;;;73.00;25.17;;;;;;;11.51;61.88;102870.13;5061923;28;20063;-51
2023/01/21 06:50:47;;;;;;;78.50;23.93;;;;;;;11.75;61.17;102879.41;5061186;28;20049;-51
2023/01/21 06:53:13;;;;;;;67.10;21.20;;;;;;;11.87;60.88;102883.56;5065767;28;20104;-51
2023/01/21 06:55:39;;;;;;;75.80;24.87;;;;;;;11.96;60.90;102884.47;5062686;28;20046;-53
2023/01/21 06:58:04;;;;;;;89.13;26.48;;;;;;;11.98;61.15;102895.03;5061213;28;20040;-53
2023/01/21 07:00:30;;;;;;;80.43;25.40;;;;;;;12.02;61.18;102896.47;5054333;28;20033;-52
2023/01/21 07:02:57;;;;;;;64.43;21.13;;;;;;;12.22;60.81;102902.50;5059837;28;20100;-50
2023/01/21 07:05:23;;;;;;;86.20;28.33;;;;;;;12.13;61.27;102904.25;5061737;28;20025;-48
2023/01/21 07:07:48;;;;;;;83.80;25.77;;;;;;;12.10;61.75;102904.56;5062534;28;20048;-49
2023/01/21 07:10:14;;;;;;;78.53;26.23;;;;;;;12.09;61.56;102912.75;5057972;28;20290;-53
2023/01/21 07:12:41;;;;;;;85.20;27.98;;;;;;;12.06;61.55;102913.94;5057710;28;20331;-51
2023/01/21 07:15:07;;;;;;;80.60;25.50;;;;;;;12.30;61.39;102912.44;5057758;28;20045;-50
2023/01/21 07:17:32;;;;;;;74.40;25.00;;;;;;;12.35;61.17;102920.84;5057063;28;20037;-52
2023/01/21 07:19:58;;;;;;;65.13;22.27;;;;;;;12.25;61.18;102920.13;5061377;28;20048;-51
2023/01/21 07:22:23;;;;;;;58.40;17.33;;;;;;;12.22;61.38;102925.78;5059069;28;20266;-54
2023/01/21 07:24:49;;;;;;;79.22;27.52;;;;;;;12.35;61.41;102936.97;5060688;28;20084;-53
2023/01/21 07:27:15;;;;;;;65.13;21.93;;;;;;;12.39;61.28;102948.22;5057506;28;20061;-51
2023/01/21 07:29:40;;;;;;;75.50;25.98;;;;;;;12.28;61.71;102944.78;5056088;28;20029;-50
2023/01/21 07:32:05;;;;;;;77.20;27.20;;;;;;;12.85;61.09;102950.72;5057905;28;20041;-53
2023/01/21 07:34:31;;;;;;;83.78;28.13;;;;;;;12.81;60.85;102950.22;5057947;28;20049;-50
2023/01/21 07:36:56;;;;;;;81.53;28.97;;;;;;;12.74;61.27;102954.50;5062250;28;20037;-51
2023/01/21 07:39:22;;;;;;;82.97;26.70;;;;;;;12.47;61.92;102962.56;5058388;28;20037;-50
2023/01/21 07:41:48;;;;;;;81.00;26.92;;;;;;;12.33;62.34;102980.03;5053023;28;20037;-51
2023/01/21 07:44:15;;;;;;;82.22;26.88;;;;;;;12.57;62.05;102978.56;5057294;28;20034;-48
2023/01/21 07:46:41;;;;;;;78.00;25.33;;;;;;;12.58;61.71;102984.75;5060313;28;20064;-55
2023/01/21 07:49:06;;;;;;;83.77;27.27;;;;;;;12.87;60.89;102986.31;5055953;28;20282;-53
2023/01/21 07:51:32;;;;;;;59.97;20.85;;;;;;;12.69;61.14;102991.72;5055331;28;20037;-53
2023/01/21 07:53:57;;;;;;;91.57;30.50;;;;;;;12.67;61.43;102991.88;5057590;28;20038;-55
2023/01/21 07:56:25;;;;;;;87.67;29.60;;;;;;;12.53;61.66;102995.13;5056483;28;20262;-54
2023/01/21 07:58:52;;;;;;;80.65;25.33;;;;;;;12.33;61.86;103000.66;5060008;28;20044;-55
2023/01/21 08:01:17;;;;;;;82.68;27.77;;;;;;;12.32;62.84;103001.66;5057248;28;20033;-51
2023/01/21 08:03:43;;;;;;;74.65;24.10;;;;;;;12.39;62.92;103005.41;5059017;28;20106;-54
2023/01/21 08:06:08;;;;;;;69.82;22.83;;;;;;;12.66;62.06;103010.84;5060347;28;20064;-54
2023/01/21 08:08:34;;;;;;;93.73;27.07;;;;;;;12.71;61.77;103012.06;5059421;28;20046;-53
2023/01/21 08:10:59;;;;;;;69.20;23.13;;;;;;;12.60;61.73;103020.34;5060625;28;20041;-54
2023/01/21 08:13:25;;;;;;;85.33;26.20;;;;;;;12.51;62.23;103030.16;5056582;28;20270;-54
2023/01/21 08:15:52;;;;;;;79.60;25.42;;;;;;;12.38;62.55;103030.56;5059829;28;20037;-56
2023/01/21 08:18:19;;;;;;;101.57;30.95;;;;;;;12.46;62.64;103032.47;5056387;28;20053;-51
2023/01/21 08:20:44;;;;;;;85.55;28.85;;;;;;;12.83;62.39;103038.63;5059809;28;20032;-53
2023/01/21 08:23:10;;;;;;;85.87;28.77;;;;;;;12.82;61.89;103034.28;5060126;28;20041;-55
2023/01/21 08:25:37;;;;;;;70.03;20.35;;;;;;;12.39;62.42;103034.94;5059145;28;20081;-55
2023/01/21 08:28:03;;;;;;;77.10;24.85;;;;;;;12.36;62.95;103039.78;5060608;28;20030;-53
2023/01/21 08:30:28;;;;;;;99.18;30.33;;;;;;;12.70;62.53;103050.66;5061087;28;20030;-53
2023/01/21 08:32:53;;;;;;;95.00;29.60;;;;;;;12.52;62.60;103047.13;5064135;28;20072;-51
2023/01/21 08:35:19;;;;;;;96.50;28.13;;;;;;;12.47;62.85;103051.13;5058556;28;20057;-51
2023/01/21 08:37:44;;;;;;;105.55;30.73;;;;;;;12.55;63.41;103054.88;5061655;28;20159;-53
2023/01/21 08:40:10;;;;;;;94.67;27.77;;;;;;;13.00;62.31;103051.19;5060973;28;20048;-49
2023/01/21 08:42:36;;;;;;;99.45;29.70;;;;;;;13.17;62.52;103054.81;5060622;28;20043;-49
2023/01/21 08:45:02;;;;;;;105.37;32.83;;;;;;;13.08;62.23;103061.16;5061618;28;20485;-51
2023/01/21 08:47:28;;;;;;;94.72;29.63;;;;;;;13.16;62.03;103057.69;5057805;28;20041;-52
2023/01/21 08:49:53;;;;;;;96.10;30.70;;;;;;;13.42;61.56;103064.88;5065516;28;20041;-55
2023/01/21 08:52:20;;;;;;;99.43;30.17;;;;;;;13.26;61.44;103073.66;5063482;28;20041;-55
2023/01/21 08:54:46;;;;;;;97.97;28.50;;;;;;;12.95;61.92;103068.78;5062292;28;20064;-52
2023/01/21 08:57:11;;;;;;;79.40;24.80;;;;;;;12.53;63.19;103076.47;5061405;28;20033;-49
2023/01/21 08:59:37;;;;;;;71.93;21.20;;;;;;;12.59;62.78;103083.06;5062699;28;20033;-53
2023/01/21 09:02:02;;;;;;;93.85;27.52;;;;;;;12.59;63.02;103077.72;5061520;28;20501;-53
2023/01/21 09:04:29;;;;;;;86.15;25.70;;;;;;;12.56;63.45;103083.38;5060926;28;20043;-52
2023/01/21 09:06:54;;;;;;;89.33;26.97;;;;;;;12.57;63.44;103085.94;5059048;28;20049;-50
2023/01/21 09:09:20;;;;;;;89.22;26.98;;;;;;;13.00;63.05;103086.13;5057719;28;20040;-51
2023/01/21 09:11:45;;;;;;;87.80;24.53;;;;;;;13.42;61.91;103089.06;5056529;28;20128;-53
2023/01/21 09:14:11;;;;;;;78.30;25.40;;;;;;;13.24;62.03;103095.34;5060809;28;20045;-48
2023/01/21 09:16:36;;;;;;;76.43;23.23;;;;;;;13.50;63.23;103091.81;5058461;28;20045;-50
2023/01/21 09:19:03;;;;;;;79.82;23.35;;;;;;;13.52;62.66;103094.38;5055420;28;20263;-48
2023/01/21 09:21:29;;;;;;;68.18;22.10;;;;;;;13.44;62.37;103100.53;5057460;28;20059;-50
2023/01/21 09:23:55;;;;;;;78.30;25.13;;;;;;;13.65;62.83;103091.25;5058362;28;20049;-49
2023/01/21 09:26:22;;;;;;;80.63;24.02;;;;;;;13.89;61.72;103094.03;5060642;28;20292;-49
2023/01/21 09:28:55;;;;;;;78.00;24.73;;;;;;;13.60;61.96;103092.53;5060661;28;20033;-50
2023/01/21 09:31:22;;;;;;;73.40;25.45;;;;;;;13.90;61.34;103090.34;5066361;28;20041;-49
2023/01/21 09:33:57;;;;;;;72.63;23.92;;;;;;;14.22;62.16;103087.91;5058321;28;20069;-48
2023/01/21 09:36:26;;;;;;;69.72;22.65;;;;;;;14.43;60.79;103092.81;5061438;28;20047;-50
2023/01/21 09:38:52;;;;;;;76.53;24.10;;;;;;;14.15;60.54;103092.25;5057838;28;20037;-51
2023/01/21 09:41:21;;;;;;;72.72;23.58;;;;;;;14.46;60.96;103089.78;5061199;28;20036;-50
2023/01/21 09:44:24;;;;;;;67.28;22.67;;;;;;;14.64;60.01;103096.88;5056979;28;20061;-48
2023/01/21 09:47:09;;;;;;;70.75;23.10;;;;;;;14.45;60.73;103095.34;5060943;28;20033;-52
2023/01/21 09:49:42;;;;;;;69.45;22.70;;;;;;;14.82;60.53;103104.81;5060147;28;20075;-50
2023/01/21 09:52:28;;;;;;;69.75;21.63;;;;;;;14.75;60.43;103110.03;5061436;28;20057;-51
2023/01/21 09:54:56;;;;;;;56.88;19.75;;;;;;;14.97;60.11;103115.75;5061007;28;20025;-53
2023/01/21 09:57:32;;;;;;;68.75;21.88;;;;;;;15.21;59.48;103116.75;5059471;28;20033;-51
2023/01/21 10:00:26;;;;;;;72.28;22.58;;;;;;;14.96;60.17;103118.63;5058361;28;20083;-51
2023/01/21 10:03:07;;;;;;;68.53;23.55;;;;;;;15.16;61.33;103122.66;5060686;28;20033;-52
2023/01/21 10:05:51;;;;;;;63.97;22.25;;;;;;;15.23;59.58;103120.13;5060249;28;20029;-55
2023/01/21 10:08:32;;;;;;;65.18;23.15;;;;;;;15.26;60.16;103125.19;5061836;28;20057;-52
2023/01/21 10:11:25;;;;;;;56.55;19.80;;;;;;;15.34;59.73;103117.06;5060953;28;20496;-53
2023/01/21 10:14:16;;;;;;;60.05;21.20;;;;;;;15.66;60.61;103110.91;5056493;28;20044;-54
2023/01/21 10:16:58;;;;;;;60.03;21.60;;;;;;;15.51;59.11;103117.03;5056780;28;20038;-54
2023/01/21 10:19:34;;;;;;;61.70;21.65;;;;;;;15.49;58.81;103119.06;5054836;28;20033;-52
2023/01/21 10:22:22;;;;;;;59.92;21.15;;;;;;;15.70;59.72;103118.50;5057636;28;20033;-51
2023/01/21 10:24:54;;;;;;;;;;;;;;;15.88;58.71;103122.81;5059669;28;20043;-48
2023/01/21 10:27:21;;;;;;;60.47;20.13;;;;;;;15.52;58.98;103124.13;5058823;28;20392;-53
2023/01/21 10:29:53;;;;;;;62.97;21.05;;;;;;;15.37;59.27;103132.06;5057911;28;20048;-52
2023/01/21 10:32:25;;;;;;;70.43;24.23;;;;;;;15.88;58.84;103126.38;5062589;28;20038;-54
2023/01/21 10:34:53;;;;;;;73.38;25.45;;;;;;;16.04;60.28;103133.56;5059362;28;20063;-53
2023/01/21 10:37:33;;;;;;;66.57;22.85;;;;;;;15.56;58.70;103133.53;5058094;28;20041;-49
2023/01/21 10:40:02;;;;;;;66.07;21.58;;;;;;;15.57;59.24;103135.22;5056828;28;20065;-53
2023/01/21 10:42:43;;;;;;;65.63;23.00;;;;;;;15.85;58.76;103134.78;5058663;28;20064;-55
2023/01/21 10:45:36;;;;;;;64.68;23.50;;;;;;;15.55;58.93;103139.94;5057223;28;20063;-53
2023/01/21 10:48:05;;;;;;;67.30;23.20;;;;;;;16.21;58.55;103138.88;5062617;28;20093;-52
2023/01/21 10:50:43;;;;;;;63.40;22.17;;;;;;;15.95;59.87;103141.88;5054627;28;20093;-52
2023/01/21 10:53:40;;;;;;;71.30;26.50;;;;;;;16.00;58.62;103145.72;5059380;28;20036;-50
2023/01/21 10:56:11;;;;;;;62.03;23.13;;;;;;;16.20;59.70;103143.44;5060648;28;20060;-54
2023/01/21 10:58:46;;;;;;;58.03;22.35;;;;;;;16.14;58.29;103144.13;5061234;28;20041;-52
2023/01/21 11:01:22;;;;;;;63.95;23.08;;;;;;;16.23;58.41;103138.72;5054586;28;20033;-52
2023/01/21 11:03:52;;;;;;;63.13;22.92;;;;;;;16.30;58.82;103147.78;5057488;28;20049;-49
2023/01/21 11:06:19;;;;;;;63.30;21.52;;;;;;;16.41;58.96;103135.72;5057444;28;20033;-54
2023/01/21 11:08:48;;;;;;;67.40;25.08;;;;;;;16.40;58.80;103132.19;5061303;28;20041;-54
2023/01/21 11:11:25;;;;;;;69.35;24.52;;;;;;;16.19;58.42;103143.59;5058706;28;20092;-53
2023/01/21 11:13:51;;;;;;;63.97;24.95;;;;;;;16.56;58.74;103141.19;5063931;28;20104;-51
2023/01/21 11:16:42;;;;;;;71.07;26.92;;;;;;;16.55;58.31;103137.66;5049911;28;20029;-50
2023/01/21 11:19:12;;;;;;;63.80;23.10;;;;;;;16.52;58.60;103138.03;5059556;28;20037;-51
2023/01/21 11:21:38;;;;;;;70.40;26.55;;;;;;;16.91;58.94;103130.81;5057508;28;20032;-50